sensor_id;sensor_type;location;lat;lon;timestamp;pressure;altitude;pressure_sealevel;temperature;humidity
3544;BME280;1786;52.870;9.578;2023-11-21T00:02:26;99994.09;;;18.19;58.52
3544;BME280;1786;52.870;9.578;2023-11-21T00:04:54;99994.06;;;18.10;59.14
3544;BME280;1786;52.870;9.578;2023-11-21T00:07:20;99982.81;;;17.72;59.81
3544;BME280;1786;52.870;9.578;2023-11-21T00:09:48;99991.41;;;18.10;58.96
3544;BME280;1786;52.870;9.578;2023-11-21T00:12:15;99992.38;;;17.49;60.59
3544;BME280;1786;52.870;9.578;2023-11-21T00:14:42;99997.84;;;17.47;60.31
3544;BME280;1786;52.870;9.578;2023-11-21T00:17:09;99984.41;;;17.83;59.96
3544;BME280;1786;52.870;9.578;2023-11-21T00:19:36;99990.16;;;17.70;60.21
3544;BME280;1786;52.870;9.578;2023-11-21T00:22:03;99985.66;;;17.97;59.68
3544;BME280;1786;52.870;9.578;2023-11-21T00:24:30;99992.47;;;17.91;59.97
3544;BME280;1786;52.870;9.578;2023-11-21T00:26:58;99992.81;;;17.97;59.21
3544;BME280;1786;52.870;9.578;2023-11-21T00:29:25;99998.22;;;18.05;59.70
3544;BME280;1786;52.870;9.578;2023-11-21T00:31:52;99995.38;;;17.28;61.56
3544;BME280;1786;52.870;9.578;2023-11-21T00:34:20;99988.78;;;17.66;60.15
3544;BME280;1786;52.870;9.578;2023-11-21T00:36:47;99988.06;;;17.56;61.02
3544;BME280;1786;52.870;9.578;2023-11-21T00:39:13;99994.34;;;17.73;60.56
3544;BME280;1786;52.870;9.578;2023-11-21T00:41:40;99992.88;;;17.79;60.15
3544;BME280;1786;52.870;9.578;2023-11-21T00:44:08;99987.13;;;17.65;60.78
3544;BME280;1786;52.870;9.578;2023-11-21T00:46:35;99992.13;;;17.68;60.60
3544;BME280;1786;52.870;9.578;2023-11-21T00:49:02;99991.84;;;17.71;60.76
3544;BME280;1786;52.870;9.578;2023-11-21T00:51:30;99993.34;;;17.92;59.90
3544;BME280;1786;52.870;9.578;2023-11-21T00:53:58;99995.69;;;17.95;60.11
3544;BME280;1786;52.870;9.578;2023-11-21T00:56:25;100000.44;;;18.09;59.36
3544;BME280;1786;52.870;9.578;2023-11-21T00:58:53;100001.16;;;17.67;60.70
3544;BME280;1786;52.870;9.578;2023-11-21T01:01:20;100000.34;;;17.67;60.45
3544;BME280;1786;52.870;9.578;2023-11-21T01:03:50;100009.88;;;17.69;60.61
3544;BME280;1786;52.870;9.578;2023-11-21T01:06:18;100012.78;;;17.58;61.05
3544;BME280;1786;52.870;9.578;2023-11-21T01:08:47;100013.75;;;18.01;59.76
3544;BME280;1786;52.870;9.578;2023-11-21T01:11:14;100016.84;;;18.23;59.73
3544;BME280;1786;52.870;9.578;2023-11-21T01:13:42;100026.75;;;18.30;59.47
3544;BME280;1786;52.870;9.578;2023-11-21T01:16:09;100033.31;;;18.44;58.71
3544;BME280;1786;52.870;9.578;2023-11-21T01:18:36;100032.56;;;18.26;59.50
3544;BME280;1786;52.870;9.578;2023-11-21T01:21:03;100033.25;;;18.28;59.05
3544;BME280;1786;52.870;9.578;2023-11-21T01:23:30;100041.19;;;18.46;58.82
3544;BME280;1786;52.870;9.578;2023-11-21T01:25:57;100043.72;;;18.55;58.86
3544;BME280;1786;52.870;9.578;2023-11-21T01:28:24;100041.09;;;18.29;58.86
3544;BME280;1786;52.870;9.578;2023-11-21T01:30:51;100039.78;;;18.25;59.25
3544;BME280;1786;52.870;9.578;2023-11-21T01:33:18;100041.06;;;18.64;59.19
3544;BME280;1786;52.870;9.578;2023-11-21T01:35:45;100040.75;;;18.67;58.57
3544;BME280;1786;52.870;9.578;2023-11-21T01:38:13;100038.97;;;18.75;58.11
3544;BME280;1786;52.870;9.578;2023-11-21T01:40:40;100034.94;;;18.79;57.86
3544;BME280;1786;52.870;9.578;2023-11-21T01:43:07;100040.31;;;18.79;57.95
3544;BME280;1786;52.870;9.578;2023-11-21T01:45:35;100046.34;;;18.90;58.20
3544;BME280;1786;52.870;9.578;2023-11-21T01:48:03;100049.00;;;18.81;57.88
3544;BME280;1786;52.870;9.578;2023-11-21T01:50:30;100042.16;;;18.87;57.88
3544;BME280;1786;52.870;9.578;2023-11-21T01:52:57;100041.84;;;18.98;57.57
3544;BME280;1786;52.870;9.578;2023-11-21T01:55:24;100053.97;;;18.68;58.45
3544;BME280;1786;52.870;9.578;2023-11-21T01:57:58;100045.84;;;18.94;57.96
3544;BME280;1786;52.870;9.578;2023-11-21T02:00:25;100054.75;;;19.03;57.76
3544;BME280;1786;52.870;9.578;2023-11-21T02:02:56;100050.56;;;19.09;57.51
3544;BME280;1786;52.870;9.578;2023-11-21T02:05:23;100054.06;;;19.01;57.51
3544;BME280;1786;52.870;9.578;2023-11-21T02:07:50;100063.97;;;19.00;57.60
3544;BME280;1786;52.870;9.578;2023-11-21T02:10:18;100061.97;;;19.02;57.92
3544;BME280;1786;52.870;9.578;2023-11-21T02:12:50;100061.13;;;19.27;57.53
3544;BME280;1786;52.870;9.578;2023-11-21T02:15:17;100062.97;;;19.26;57.19
3544;BME280;1786;52.870;9.578;2023-11-21T02:17:49;100062.00;;;19.35;57.10
3544;BME280;1786;52.870;9.578;2023-11-21T02:20:20;100063.31;;;19.39;56.76
3544;BME280;1786;52.870;9.578;2023-11-21T02:22:56;100072.69;;;19.27;57.10
3544;BME280;1786;52.870;9.578;2023-11-21T02:25:29;100072.00;;;19.17;57.73
3544;BME280;1786;52.870;9.578;2023-11-21T02:27:58;100072.00;;;19.25;57.12
3544;BME280;1786;52.870;9.578;2023-11-21T02:30:25;100073.03;;;19.32;57.40
3544;BME280;1786;52.870;9.578;2023-11-21T02:32:52;100077.19;;;19.35;57.05
3544;BME280;1786;52.870;9.578;2023-11-21T02:35:25;100076.38;;;19.34;56.95
3544;BME280;1786;52.870;9.578;2023-11-21T02:37:55;100075.69;;;19.32;57.14
3544;BME280;1786;52.870;9.578;2023-11-21T02:40:23;100080.06;;;19.41;57.02
3544;BME280;1786;52.870;9.578;2023-11-21T02:42:52;100077.06;;;19.28;57.47
3544;BME280;1786;52.870;9.578;2023-11-21T02:45:19;100074.19;;;19.30;57.28
3544;BME280;1786;52.870;9.578;2023-11-21T02:47:49;100081.38;;;19.37;57.24
3544;BME280;1786;52.870;9.578;2023-11-21T02:50:16;100089.44;;;19.29;57.40
3544;BME280;1786;52.870;9.578;2023-11-21T02:52:47;100097.16;;;19.40;57.40
3544;BME280;1786;52.870;9.578;2023-11-21T02:55:14;100098.47;;;19.36;57.39
3544;BME280;1786;52.870;9.578;2023-11-21T02:57:40;100101.47;;;19.25;57.54
3544;BME280;1786;52.870;9.578;2023-11-21T03:00:08;100107.50;;;19.11;57.55
3544;BME280;1786;52.870;9.578;2023-11-21T03:02:37;100101.81;;;19.22;57.24
3544;BME280;1786;52.870;9.578;2023-11-21T03:05:07;100109.88;;;19.38;57.42
3544;BME280;1786;52.870;9.578;2023-11-21T03:07:39;100104.84;;;19.35;57.27
3544;BME280;1786;52.870;9.578;2023-11-21T03:10:08;100116.56;;;19.42;57.44
3544;BME280;1786;52.870;9.578;2023-11-21T03:12:39;100112.88;;;19.27;57.65
3544;BME280;1786;52.870;9.578;2023-11-21T03:15:07;100120.75;;;19.37;57.64
3544;BME280;1786;52.870;9.578;2023-11-21T03:17:36;100114.38;;;19.30;57.18
3544;BME280;1786;52.870;9.578;2023-11-21T03:20:04;100116.91;;;19.31;57.52
3544;BME280;1786;52.870;9.578;2023-11-21T03:22:32;100108.03;;;19.31;57.39
3544;BME280;1786;52.870;9.578;2023-11-21T03:24:59;100111.88;;;19.28;57.17
3544;BME280;1786;52.870;9.578;2023-11-21T03:27:26;100120.91;;;19.27;58.03
3544;BME280;1786;52.870;9.578;2023-11-21T03:29:53;100122.25;;;19.31;57.58
3544;BME280;1786;52.870;9.578;2023-11-21T03:32:21;100124.88;;;19.07;58.46
3544;BME280;1786;52.870;9.578;2023-11-21T03:34:57;100126.69;;;18.55;59.54
3544;BME280;1786;52.870;9.578;2023-11-21T03:37:26;100132.38;;;18.00;60.98
3544;BME280;1786;52.870;9.578;2023-11-21T03:39:55;100126.00;;;16.66;64.23
3544;BME280;1786;52.870;9.578;2023-11-21T03:42:23;100139.25;;;15.62;67.26
3544;BME280;1786;52.870;9.578;2023-11-21T03:44:50;100138.47;;;15.81;66.96
3544;BME280;1786;52.870;9.578;2023-11-21T03:47:18;100144.13;;;15.08;69.09
3544;BME280;1786;52.870;9.578;2023-11-21T03:49:46;100146.66;;;14.60;71.12
3544;BME280;1786;52.870;9.578;2023-11-21T03:52:15;100147.84;;;14.77;69.96
3544;BME280;1786;52.870;9.578;2023-11-21T03:54:43;100153.19;;;14.77;70.18
3544;BME280;1786;52.870;9.578;2023-11-21T03:57:10;100158.31;;;14.47;70.64
3544;BME280;1786;52.870;9.578;2023-11-21T03:59:41;100167.75;;;14.31;71.49
3544;BME280;1786;52.870;9.578;2023-11-21T04:02:09;100173.25;;;14.60;70.73
3544;BME280;1786;52.870;9.578;2023-11-21T04:04:35;100170.09;;;14.03;71.74
3544;BME280;1786;52.870;9.578;2023-11-21T04:07:03;100173.53;;;13.94;72.28
3544;BME280;1786;52.870;9.578;2023-11-21T04:09:30;100183.06;;;14.17;70.98
3544;BME280;1786;52.870;9.578;2023-11-21T04:11:57;100182.84;;;14.30;70.98
3544;BME280;1786;52.870;9.578;2023-11-21T04:14:24;100179.75;;;14.04;71.53
3544;BME280;1786;52.870;9.578;2023-11-21T04:16:51;100193.53;;;14.40;70.08
3544;BME280;1786;52.870;9.578;2023-11-21T04:19:19;100195.09;;;14.00;71.58
3544;BME280;1786;52.870;9.578;2023-11-21T04:21:46;100209.75;;;13.95;71.68
3544;BME280;1786;52.870;9.578;2023-11-21T04:24:13;100222.72;;;14.09;71.13
3544;BME280;1786;52.870;9.578;2023-11-21T04:26:40;100216.50;;;13.99;71.05
3544;BME280;1786;52.870;9.578;2023-11-21T04:29:07;100226.09;;;14.11;70.57
3544;BME280;1786;52.870;9.578;2023-11-21T04:31:33;100234.63;;;13.94;70.52
3544;BME280;1786;52.870;9.578;2023-11-21T04:34:00;100235.66;;;13.81;71.41
3544;BME280;1786;52.870;9.578;2023-11-21T04:36:27;100241.22;;;13.78;70.81
3544;BME280;1786;52.870;9.578;2023-11-21T04:38:54;100244.41;;;13.61;71.29
3544;BME280;1786;52.870;9.578;2023-11-21T04:41:21;100241.69;;;13.83;71.04
3544;BME280;1786;52.870;9.578;2023-11-21T04:43:48;100246.34;;;13.48;71.71
3544;BME280;1786;52.870;9.578;2023-11-21T04:46:15;100253.03;;;13.31;72.04
3544;BME280;1786;52.870;9.578;2023-11-21T04:48:42;100251.38;;;13.62;71.65
3544;BME280;1786;52.870;9.578;2023-11-21T04:51:09;100249.53;;;14.06;70.14
3544;BME280;1786;52.870;9.578;2023-11-21T04:53:39;100258.53;;;13.94;70.08
3544;BME280;1786;52.870;9.578;2023-11-21T04:56:06;100270.25;;;13.48;70.91
3544;BME280;1786;52.870;9.578;2023-11-21T04:58:32;100263.75;;;13.29;71.89
3544;BME280;1786;52.870;9.578;2023-11-21T05:00:59;100270.19;;;13.70;70.62
3544;BME280;1786;52.870;9.578;2023-11-21T05:03:26;100280.50;;;13.52;70.75
3544;BME280;1786;52.870;9.578;2023-11-21T05:05:53;100282.53;;;13.60;70.23
3544;BME280;1786;52.870;9.578;2023-11-21T05:08:22;100279.25;;;13.68;70.58
3544;BME280;1786;52.870;9.578;2023-11-21T05:10:49;100289.78;;;13.47;70.77
3544;BME280;1786;52.870;9.578;2023-11-21T05:13:16;100282.06;;;12.98;72.08
3544;BME280;1786;52.870;9.578;2023-11-21T05:15:44;100284.84;;;13.08;71.82
3544;BME280;1786;52.870;9.578;2023-11-21T05:18:11;100291.72;;;13.45;69.77
3544;BME280;1786;52.870;9.578;2023-11-21T05:20:40;100301.84;;;13.06;71.44
3544;BME280;1786;52.870;9.578;2023-11-21T05:23:07;100296.25;;;12.64;71.89
3544;BME280;1786;52.870;9.578;2023-11-21T05:25:35;100308.91;;;12.60;71.89
3544;BME280;1786;52.870;9.578;2023-11-21T05:28:06;100314.31;;;12.47;72.00
3544;BME280;1786;52.870;9.578;2023-11-21T05:30:33;100316.53;;;12.87;71.16
3544;BME280;1786;52.870;9.578;2023-11-21T05:33:00;100322.50;;;12.55;71.84
3544;BME280;1786;52.870;9.578;2023-11-21T05:35:27;100323.25;;;12.58;71.77
3544;BME280;1786;52.870;9.578;2023-11-21T05:37:54;100326.50;;;12.61;70.33
3544;BME280;1786;52.870;9.578;2023-11-21T05:40:20;100332.19;;;12.79;70.39
3544;BME280;1786;52.870;9.578;2023-11-21T05:42:49;100336.59;;;12.56;70.96
3544;BME280;1786;52.870;9.578;2023-11-21T05:45:18;100339.59;;;13.09;69.29
3544;BME280;1786;52.870;9.578;2023-11-21T05:47:46;100341.72;;;12.82;69.69
3544;BME280;1786;52.870;9.578;2023-11-21T05:50:15;100352.47;;;12.21;71.41
3544;BME280;1786;52.870;9.578;2023-11-21T05:52:46;100341.81;;;12.33;70.93
3544;BME280;1786;52.870;9.578;2023-11-21T05:55:14;100349.03;;;12.67;70.64
3544;BME280;1786;52.870;9.578;2023-11-21T05:57:42;100350.44;;;12.48;70.10
3544;BME280;1786;52.870;9.578;2023-11-21T06:00:12;100359.69;;;12.19;71.45
3544;BME280;1786;52.870;9.578;2023-11-21T06:02:49;100367.84;;;12.40;71.01
3544;BME280;1786;52.870;9.578;2023-11-21T06:05:18;100376.56;;;12.99;69.90
3544;BME280;1786;52.870;9.578;2023-11-21T06:07:46;100377.09;;;12.58;69.73
3544;BME280;1786;52.870;9.578;2023-11-21T06:10:14;100376.25;;;13.15;68.83
3544;BME280;1786;52.870;9.578;2023-11-21T06:12:41;100379.25;;;13.11;68.57
3544;BME280;1786;52.870;9.578;2023-11-21T06:15:10;100372.28;;;13.21;68.37
3544;BME280;1786;52.870;9.578;2023-11-21T06:17:42;100387.50;;;13.30;67.76
3544;BME280;1786;52.870;9.578;2023-11-21T06:20:10;100394.50;;;13.31;67.80
3544;BME280;1786;52.870;9.578;2023-11-21T06:22:42;100404.84;;;13.23;67.93
3544;BME280;1786;52.870;9.578;2023-11-21T06:25:11;100411.25;;;13.20;67.95
3544;BME280;1786;52.870;9.578;2023-11-21T06:27:42;100415.63;;;13.55;66.96
3544;BME280;1786;52.870;9.578;2023-11-21T06:30:09;100423.28;;;13.13;67.91
3544;BME280;1786;52.870;9.578;2023-11-21T06:32:38;100437.31;;;13.27;66.72
3544;BME280;1786;52.870;9.578;2023-11-21T06:35:07;100435.41;;;13.29;66.96
3544;BME280;1786;52.870;9.578;2023-11-21T06:37:38;100452.13;;;13.18;66.35
3544;BME280;1786;52.870;9.578;2023-11-21T06:40:06;100448.94;;;13.02;67.30
3544;BME280;1786;52.870;9.578;2023-11-21T06:42:35;100456.47;;;12.60;67.58
3544;BME280;1786;52.870;9.578;2023-11-21T06:45:02;100463.69;;;12.82;67.55
3544;BME280;1786;52.870;9.578;2023-11-21T06:47:33;100464.94;;;12.65;68.09
3544;BME280;1786;52.870;9.578;2023-11-21T06:50:00;100467.59;;;13.35;66.19
3544;BME280;1786;52.870;9.578;2023-11-21T06:52:27;100481.31;;;12.94;66.17
3544;BME280;1786;52.870;9.578;2023-11-21T06:54:54;100479.00;;;12.89;66.63
3544;BME280;1786;52.870;9.578;2023-11-21T06:57:23;100480.56;;;12.81;67.48
3544;BME280;1786;52.870;9.578;2023-11-21T06:59:49;100490.53;;;13.12;65.91
3544;BME280;1786;52.870;9.578;2023-11-21T07:02:17;100490.72;;;12.63;66.84
3544;BME280;1786;52.870;9.578;2023-11-21T07:04:47;100495.47;;;12.70;67.13
3544;BME280;1786;52.870;9.578;2023-11-21T07:07:14;100502.16;;;12.87;66.83
3544;BME280;1786;52.870;9.578;2023-11-21T07:09:42;100506.28;;;12.91;66.27
3544;BME280;1786;52.870;9.578;2023-11-21T07:12:09;100500.41;;;12.51;68.01
3544;BME280;1786;52.870;9.578;2023-11-21T07:14:37;100510.97;;;12.88;67.29
3544;BME280;1786;52.870;9.578;2023-11-21T07:17:06;100505.94;;;12.48;67.45
3544;BME280;1786;52.870;9.578;2023-11-21T07:19:33;100519.56;;;12.54;67.80
3544;BME280;1786;52.870;9.578;2023-11-21T07:22:02;100521.28;;;12.55;67.74
3544;BME280;1786;52.870;9.578;2023-11-21T07:24:29;100527.53;;;12.54;67.45
3544;BME280;1786;52.870;9.578;2023-11-21T07:26:58;100531.94;;;12.43;68.11
3544;BME280;1786;52.870;9.578;2023-11-21T07:29:25;100531.91;;;13.15;66.18
3544;BME280;1786;52.870;9.578;2023-11-21T07:31:53;100539.59;;;12.59;66.93
3544;BME280;1786;52.870;9.578;2023-11-21T07:34:22;100547.03;;;12.53;67.30
3544;BME280;1786;52.870;9.578;2023-11-21T07:36:48;100548.47;;;12.70;66.89
3544;BME280;1786;52.870;9.578;2023-11-21T07:39:16;100554.66;;;13.30;64.66
3544;BME280;1786;52.870;9.578;2023-11-21T07:41:46;100552.81;;;12.71;66.38
3544;BME280;1786;52.870;9.578;2023-11-21T07:44:16;100563.22;;;12.98;65.84
3544;BME280;1786;52.870;9.578;2023-11-21T07:46:46;100569.22;;;12.52;66.48
3544;BME280;1786;52.870;9.578;2023-11-21T07:49:13;100577.84;;;12.67;66.16
3544;BME280;1786;52.870;9.578;2023-11-21T07:51:47;100579.47;;;12.57;66.58
3544;BME280;1786;52.870;9.578;2023-11-21T07:54:14;100577.47;;;12.61;66.33
3544;BME280;1786;52.870;9.578;2023-11-21T07:56:42;100577.53;;;12.35;66.88
3544;BME280;1786;52.870;9.578;2023-11-21T07:59:10;100582.38;;;12.41;66.77
3544;BME280;1786;52.870;9.578;2023-11-21T08:01:38;100596.66;;;12.88;65.84
3544;BME280;1786;52.870;9.578;2023-11-21T08:04:07;100593.34;;;12.61;66.39
3544;BME280;1786;52.870;9.578;2023-11-21T08:06:35;100580.84;;;12.63;66.54
3544;BME280;1786;52.870;9.578;2023-11-21T08:09:02;100585.66;;;12.82;65.44
3544;BME280;1786;52.870;9.578;2023-11-21T08:11:28;100588.53;;;13.03;64.93
3544;BME280;1786;52.870;9.578;2023-11-21T08:13:58;100602.19;;;13.09;64.80
3544;BME280;1786;52.870;9.578;2023-11-21T08:16:25;100609.78;;;12.90;65.03
3544;BME280;1786;52.870;9.578;2023-11-21T08:18:52;100609.31;;;12.72;66.07
3544;BME280;1786;52.870;9.578;2023-11-21T08:21:19;100613.53;;;12.87;65.62
3544;BME280;1786;52.870;9.578;2023-11-21T08:23:46;100618.25;;;12.95;65.28
3544;BME280;1786;52.870;9.578;2023-11-21T08:26:19;100622.69;;;12.83;65.49
3544;BME280;1786;52.870;9.578;2023-11-21T08:28:45;100626.84;;;12.62;65.37
3544;BME280;1786;52.870;9.578;2023-11-21T08:31:13;100631.84;;;12.53;65.76
3544;BME280;1786;52.870;9.578;2023-11-21T08:33:41;100628.56;;;12.63;65.94
3544;BME280;1786;52.870;9.578;2023-11-21T08:36:09;100633.00;;;12.99;65.02
3544;BME280;1786;52.870;9.578;2023-11-21T08:38:37;100636.50;;;12.99;65.07
3544;BME280;1786;52.870;9.578;2023-11-21T08:41:06;100636.63;;;12.98;64.31
3544;BME280;1786;52.870;9.578;2023-11-21T08:43:36;100647.66;;;12.92;64.84
3544;BME280;1786;52.870;9.578;2023-11-21T08:46:07;100656.78;;;13.01;64.51
3544;BME280;1786;52.870;9.578;2023-11-21T08:48:36;100664.78;;;13.12;64.61
3544;BME280;1786;52.870;9.578;2023-11-21T08:51:04;100664.53;;;12.28;65.78
3544;BME280;1786;52.870;9.578;2023-11-21T08:53:31;100671.16;;;13.09;64.48
3544;BME280;1786;52.870;9.578;2023-11-21T08:55:57;100676.78;;;12.81;65.33
3544;BME280;1786;52.870;9.578;2023-11-21T08:58:25;100682.66;;;13.58;63.34
3544;BME280;1786;52.870;9.578;2023-11-21T09:00:52;100680.56;;;13.26;63.85
3544;BME280;1786;52.870;9.578;2023-11-21T09:03:19;100690.91;;;13.18;63.86
3544;BME280;1786;52.870;9.578;2023-11-21T09:05:46;100690.38;;;13.13;64.19
3544;BME280;1786;52.870;9.578;2023-11-21T09:08:12;100694.66;;;13.39;63.49
3544;BME280;1786;52.870;9.578;2023-11-21T09:10:39;100691.22;;;13.85;62.13
3544;BME280;1786;52.870;9.578;2023-11-21T09:13:06;100693.16;;;12.98;63.39
3544;BME280;1786;52.870;9.578;2023-11-21T09:15:36;100703.50;;;12.65;64.75
3544;BME280;1786;52.870;9.578;2023-11-21T09:18:03;100705.44;;;13.12;63.44
3544;BME280;1786;52.870;9.578;2023-11-21T09:20:29;100714.28;;;12.87;63.69
3544;BME280;1786;52.870;9.578;2023-11-21T09:22:56;100716.34;;;12.71;64.13
3544;BME280;1786;52.870;9.578;2023-11-21T09:25:23;100720.81;;;13.07;63.62
3544;BME280;1786;52.870;9.578;2023-11-21T09:27:50;100720.84;;;12.94;63.15
3544;BME280;1786;52.870;9.578;2023-11-21T09:30:17;100732.59;;;13.29;62.96
3544;BME280;1786;52.870;9.578;2023-11-21T09:32:44;100738.53;;;13.19;63.04
3544;BME280;1786;52.870;9.578;2023-11-21T09:35:13;100744.38;;;13.61;62.54
3544;BME280;1786;52.870;9.578;2023-11-21T09:37:41;100752.44;;;13.60;62.24
3544;BME280;1786;52.870;9.578;2023-11-21T09:40:10;100753.38;;;13.22;62.82
3544;BME280;1786;52.870;9.578;2023-11-21T09:42:42;100753.38;;;13.22;63.38
3544;BME280;1786;52.870;9.578;2023-11-21T09:45:29;100757.41;;;13.64;62.36
3544;BME280;1786;52.870;9.578;2023-11-21T09:48:01;100765.38;;;13.64;61.40
3544;BME280;1786;52.870;9.578;2023-11-21T09:50:28;100756.34;;;13.67;62.40
3544;BME280;1786;52.870;9.578;2023-11-21T09:53:02;100767.66;;;14.17;61.49
3544;BME280;1786;52.870;9.578;2023-11-21T09:55:34;100761.69;;;14.02;61.63
3544;BME280;1786;52.870;9.578;2023-11-21T09:58:04;100768.81;;;13.78;62.56
3544;BME280;1786;52.870;9.578;2023-11-21T10:00:34;100771.91;;;13.96;61.44
3544;BME280;1786;52.870;9.578;2023-11-21T10:03:01;100771.53;;;13.65;62.54
3544;BME280;1786;52.870;9.578;2023-11-21T10:05:29;100778.63;;;14.13;61.53
3544;BME280;1786;52.870;9.578;2023-11-21T10:07:56;100785.66;;;13.90;61.61
3544;BME280;1786;52.870;9.578;2023-11-21T10:10:24;100790.16;;;14.00;62.08
3544;BME280;1786;52.870;9.578;2023-11-21T10:12:55;100795.19;;;14.52;61.67
3544;BME280;1786;52.870;9.578;2023-11-21T10:15:23;100795.41;;;14.13;62.50
3544;BME280;1786;52.870;9.578;2023-11-21T10:17:54;100801.53;;;14.38;61.62
3544;BME280;1786;52.870;9.578;2023-11-21T10:20:23;100805.09;;;14.14;62.26
3544;BME280;1786;52.870;9.578;2023-11-21T10:22:51;100804.78;;;14.06;62.24
3544;BME280;1786;52.870;9.578;2023-11-21T10:25:18;100798.47;;;13.96;62.11
3544;BME280;1786;52.870;9.578;2023-11-21T10:27:48;100805.53;;;14.43;61.54
3544;BME280;1786;52.870;9.578;2023-11-21T10:30:17;100808.97;;;15.14;60.70
3544;BME280;1786;52.870;9.578;2023-11-21T10:32:44;100812.59;;;15.25;59.51
3544;BME280;1786;52.870;9.578;2023-11-21T10:35:11;100813.78;;;14.87;60.00
3544;BME280;1786;52.870;9.578;2023-11-21T10:37:41;100804.38;;;14.23;61.03
3544;BME280;1786;52.870;9.578;2023-11-21T10:40:10;100806.81;;;13.54;63.04
3544;BME280;1786;52.870;9.578;2023-11-21T10:42:39;100809.28;;;13.81;62.67
3544;BME280;1786;52.870;9.578;2023-11-21T10:45:09;100818.88;;;13.95;62.56
3544;BME280;1786;52.870;9.578;2023-11-21T10:47:42;100816.75;;;14.60;61.10
3544;BME280;1786;52.870;9.578;2023-11-21T10:50:10;100815.56;;;14.86;60.81
3544;BME280;1786;52.870;9.578;2023-11-21T10:52:41;100817.88;;;14.80;60.55
3544;BME280;1786;52.870;9.578;2023-11-21T10:55:17;100815.91;;;14.59;61.21
3544;BME280;1786;52.870;9.578;2023-11-21T10:57:48;100815.34;;;14.43;60.88
3544;BME280;1786;52.870;9.578;2023-11-21T11:00:16;100818.03;;;13.95;62.27
3544;BME280;1786;52.870;9.578;2023-11-21T11:02:47;100824.97;;;14.33;61.25
3544;BME280;1786;52.870;9.578;2023-11-21T11:05:19;100828.03;;;14.75;60.46
3544;BME280;1786;52.870;9.578;2023-11-21T11:07:48;100822.84;;;13.90;61.93
3544;BME280;1786;52.870;9.578;2023-11-21T11:10:21;100824.47;;;14.27;61.65
3544;BME280;1786;52.870;9.578;2023-11-21T11:12:49;100830.84;;;14.25;61.74
3544;BME280;1786;52.870;9.578;2023-11-21T11:15:16;100832.75;;;14.47;61.01
3544;BME280;1786;52.870;9.578;2023-11-21T11:17:45;100827.09;;;13.92;61.85
3544;BME280;1786;52.870;9.578;2023-11-21T11:20:14;100836.88;;;13.92;61.77
3544;BME280;1786;52.870;9.578;2023-11-21T11:22:54;100840.38;;;14.16;61.85
3544;BME280;1786;52.870;9.578;2023-11-21T11:28:20;100852.84;;;14.03;61.18
3544;BME280;1786;52.870;9.578;2023-11-21T11:31:01;100851.59;;;14.09;61.49
3544;BME280;1786;52.870;9.578;2023-11-21T11:33:41;100853.84;;;14.02;61.27
3544;BME280;1786;52.870;9.578;2023-11-21T11:39:00;100853.66;;;14.16;61.11
3544;BME280;1786;52.870;9.578;2023-11-21T11:41:31;100858.56;;;14.58;60.00
3544;BME280;1786;52.870;9.578;2023-11-21T11:44:01;100856.94;;;14.44;59.82
3544;BME280;1786;52.870;9.578;2023-11-21T11:46:44;100864.06;;;14.19;59.64
3544;BME280;1786;52.870;9.578;2023-11-21T11:50:03;100860.69;;;14.99;58.61
3544;BME280;1786;52.870;9.578;2023-11-21T11:52:45;100872.13;;;15.35;57.39
3544;BME280;1786;52.870;9.578;2023-11-21T11:55:13;100869.69;;;15.09;57.58
3544;BME280;1786;52.870;9.578;2023-11-21T11:57:42;100875.00;;;15.66;56.62
3544;BME280;1786;52.870;9.578;2023-11-21T12:00:22;100866.59;;;14.80;57.61
3544;BME280;1786;52.870;9.578;2023-11-21T12:03:02;100873.00;;;14.89;57.58
3544;BME280;1786;52.870;9.578;2023-11-21T12:05:33;100869.53;;;14.53;57.96
3544;BME280;1786;52.870;9.578;2023-11-21T12:08:08;100874.59;;;14.80;57.87
3544;BME280;1786;52.870;9.578;2023-11-21T12:10:37;100882.06;;;14.51;58.77
3544;BME280;1786;52.870;9.578;2023-11-21T12:13:07;100890.75;;;14.42;58.84
3544;BME280;1786;52.870;9.578;2023-11-21T12:15:34;100885.38;;;14.90;58.31
3544;BME280;1786;52.870;9.578;2023-11-21T12:18:02;100884.78;;;13.90;59.58
3544;BME280;1786;52.870;9.578;2023-11-21T12:20:30;100886.72;;;14.12;59.97
3544;BME280;1786;52.870;9.578;2023-11-21T12:22:58;100887.44;;;14.38;59.02
3544;BME280;1786;52.870;9.578;2023-11-21T12:25:28;100895.84;;;14.80;58.99
3544;BME280;1786;52.870;9.578;2023-11-21T12:27:56;100900.75;;;14.62;58.02
3544;BME280;1786;52.870;9.578;2023-11-21T12:30:25;100892.81;;;13.64;59.45
3544;BME280;1786;52.870;9.578;2023-11-21T12:32:55;100903.66;;;13.74;59.84
3544;BME280;1786;52.870;9.578;2023-11-21T12:35:26;100896.94;;;14.05;59.35
3544;BME280;1786;52.870;9.578;2023-11-21T12:37:55;100895.78;;;15.04;57.46
3544;BME280;1786;52.870;9.578;2023-11-21T12:40:24;100896.41;;;15.08;57.63
3544;BME280;1786;52.870;9.578;2023-11-21T12:42:57;100909.81;;;14.60;57.25
3544;BME280;1786;52.870;9.578;2023-11-21T12:45:27;100910.78;;;13.98;58.88
3544;BME280;1786;52.870;9.578;2023-11-21T12:47:56;100928.34;;;14.24;59.17
3544;BME280;1786;52.870;9.578;2023-11-21T12:50:29;100926.38;;;14.63;58.24
3544;BME280;1786;52.870;9.578;2023-11-21T12:53:02;100924.69;;;15.09;58.13
3544;BME280;1786;52.870;9.578;2023-11-21T12:55:31;100929.97;;;15.33;57.65
3544;BME280;1786;52.870;9.578;2023-11-21T12:58:01;100933.50;;;14.87;58.57
3544;BME280;1786;52.870;9.578;2023-11-21T13:00:40;100944.84;;;14.89;58.18
3544;BME280;1786;52.870;9.578;2023-11-21T13:03:11;100951.13;;;14.16;58.72
3544;BME280;1786;52.870;9.578;2023-11-21T13:05:40;100959.34;;;14.37;58.53
3544;BME280;1786;52.870;9.578;2023-11-21T13:08:14;100964.59;;;14.62;58.94
3544;BME280;1786;52.870;9.578;2023-11-21T13:10:44;100968.44;;;14.93;58.10
3544;BME280;1786;52.870;9.578;2023-11-21T13:13:13;100976.09;;;14.98;57.99
3544;BME280;1786;52.870;9.578;2023-11-21T13:15:55;100970.34;;;14.56;58.71
3544;BME280;1786;52.870;9.578;2023-11-21T13:18:24;100962.03;;;14.61;58.56
3544;BME280;1786;52.870;9.578;2023-11-21T13:21:01;100964.97;;;14.69;58.06
3544;BME280;1786;52.870;9.578;2023-11-21T13:23:34;100973.25;;;14.16;59.84
3544;BME280;1786;52.870;9.578;2023-11-21T13:26:03;100964.59;;;14.62;58.54
3544;BME280;1786;52.870;9.578;2023-11-21T13:28:33;100969.94;;;14.74;58.83